Thunder radar more information blitzortung!


Radar de pluja more information rain snow radar


Visita la nostra xarxa de llocs de meteo:

Template documentation
and downloads

And another site



No particular awareness of the weather is required.    There are no Weather-warnings

Pagina Historial Weather Underground text

Diari Resum Agost 17, 2017 Unitats:  Imperial    Mètric   Tant
« Previous Dia
SegĂźent Dia »
Diari Setmana Mensual Anual Personalitzada
  Maxima: Minima: Media:
Temperatura: 94.5 °F 68.2 °F 79.3 °F
Punt de rosada: 65.3 °F 57.6 °F 61 °F
Humitat: 72 % 34 % 55 %
Wind Speed: 13 mph 0 mph 3.4 mph
RĂ fegues de vent: 13 mph - -
Vent:- - SSW
Pression baro: 30.1 in 30 in -
Precipitacions: 0 in    
Historical Graphs
 
 
Dades de taula per Agost 17, 2017
Temps Temperatura Punt de rosada Pression baro Vent Wind Speed RĂ fegues de vent Humitat Rainfall Rate (Hourly)
00:02 73 °F 58.3 °F 30.1 in Calm     60 % 0 in
00:07 73 °F 58.3 °F 30.1 in Calm     60 % 0 in
00:12 73 °F 58.3 °F 30.1 in Calm     60 % 0 in
00:17 72.9 °F 58.3 °F 30.1 in Calm     60 % 0 in
00:22 72.9 °F 58.3 °F 30.1 in Calm     60 % 0 in
00:27 72.7 °F 57.9 °F 30.1 in Calm     60 % 0 in
00:32 72.7 °F 57.9 °F 30.1 in Calm     60 % 0 in
00:37 72.7 °F 57.9 °F 30.1 in Calm     60 % 0 in
00:42 72.5 °F 57.7 °F 30.1 in Calm     60 % 0 in
00:47 72.5 °F 57.7 °F 30.1 in Calm     60 % 0 in
00:52 72.5 °F 57.7 °F 30.1 in Calm     60 % 0 in
00:57 72.5 °F 58.3 °F 30.1 in Calm     61 % 0 in
01:02 72.3 °F 58.1 °F 30.1 in Calm     61 % 0 in
01:07 72.3 °F 58.1 °F 30.1 in NNW 1.4 mph   61 % 0 in
01:12 72.5 °F 58.3 °F 30.1 in Calm     61 % 0 in
01:17 72.3 °F 58.1 °F 30.1 in Calm     61 % 0 in
01:22 72.3 °F 58.1 °F 30.1 in Calm     61 % 0 in
01:27 72.1 °F 57.9 °F 30.1 in Calm     61 % 0 in
01:32 72.1 °F 57.9 °F 30.1 in Calm     61 % 0 in
01:37 71.8 °F 57.6 °F 30.1 in Calm     61 % 0 in
01:42 71.6 °F 57.9 °F 30.1 in Calm     62 % 0 in
01:47 71.2 °F 57.9 °F 30.1 in Calm     63 % 0 in
01:52 71.1 °F 57.7 °F 30.1 in Calm     63 % 0 in
01:57 71.1 °F 57.7 °F 30.1 in Calm     63 % 0 in
02:02 71.1 °F 57.7 °F 30.1 in Calm     63 % 0 in
02:07 70.9 °F 58.1 °F 30.1 in Calm     64 % 0 in
02:12 70.7 °F 57.9 °F 30.1 in Calm     64 % 0 in
02:17 70.7 °F 57.9 °F 30.1 in Calm     64 % 0 in
02:22 70.7 °F 57.9 °F 30.1 in Calm     64 % 0 in
02:27 70.7 °F 58.5 °F 30.1 in Calm     65 % 0 in
02:32 70.5 °F 58.3 °F 30.1 in Calm     65 % 0 in
02:37 70.3 °F 57.9 °F 30.1 in WSW 1.4 mph 1.4 mph 65 % 0 in
02:42 70.3 °F 57.9 °F 30.1 in SW 2.3 mph 2.3 mph 65 % 0 in
02:47 70.2 °F 57.7 °F 30.1 in SW 2.3 mph 2.3 mph 65 % 0 in
02:52 70.2 °F 57.7 °F 30.1 in SW 2.3 mph 2.3 mph 65 % 0 in
02:57 70 °F 58.1 °F 30.1 in WSW 2.4 mph 2.4 mph 66 % 0 in
03:02 69.8 °F 57.9 °F 30.1 in WSW 1.2 mph   66 % 0 in
03:07 69.8 °F 57.9 °F 30.1 in Calm     66 % 0 in
03:08 69.8 °F 57.9 °F 30.1 in Calm     66 % 0 in
03:13 70.2 °F 58.3 °F 30.1 in SW 2.3 mph 2.3 mph 66 % 0 in
03:18 70.2 °F 58.3 °F 30.1 in Calm     66 % 0 in
03:23 70.2 °F 58.3 °F 30.1 in SW 1.4 mph 1.4 mph 66 % 0 in
03:28 70.2 °F 58.3 °F 30.1 in SW 1.2 mph 1.2 mph 66 % 0 in
03:33 70 °F 58.1 °F 30.1 in Calm     66 % 0 in
03:38 70 °F 58.5 °F 30.1 in Calm     67 % 0 in
03:43 70 °F 58.5 °F 30.1 in NNE 1.2 mph 1.2 mph 67 % 0 in
03:48 69.8 °F 57.9 °F 30.1 in Calm     66 % 0 in
03:53 69.8 °F 57.9 °F 30.1 in SW 1.2 mph 1.4 mph 66 % 0 in
03:58 69.6 °F 58.3 °F 30.1 in Calm     67 % 0 in
04:03 69.4 °F 57.9 °F 30.1 in Calm     67 % 0 in
04:08 69.3 °F 57.7 °F 30.1 in Calm     67 % 0 in
04:13 69.1 °F 58.1 °F 30.1 in Calm     68 % 0 in
04:18 69.3 °F 58.3 °F 30.1 in SW 1.4 mph 1.4 mph 68 % 0 in
04:23 69.3 °F 58.3 °F 30.1 in Calm     68 % 0 in
04:28 69.3 °F 58.3 °F 30.1 in Calm     68 % 0 in
04:33 69.4 °F 58.5 °F 30.1 in SW 1.6 mph 1.6 mph 68 % 0 in
04:38 69.4 °F 58.5 °F 30.1 in Calm     68 % 0 in
04:43 69.6 °F 58.6 °F 30.1 in SW 2.3 mph 2.3 mph 68 % 0 in
04:48 69.6 °F 58.6 °F 30.1 in Calm     68 % 0 in
04:53 69.4 °F 58.5 °F 30.1 in SW 1.2 mph 1.2 mph 68 % 0 in
04:58 69.4 °F 58.5 °F 30.1 in Calm     68 % 0 in
05:03 69.3 °F 58.3 °F 30.1 in Calm     68 % 0 in
05:08 69.4 °F 58.5 °F 30.1 in Calm     68 % 0 in
05:13 69.4 °F 58.8 °F 30.1 in Calm     69 % 0 in
05:18 69.4 °F 58.8 °F 30.1 in Calm     69 % 0 in
05:20 69.4 °F 58.8 °F 30.1 in Calm     69 % 0 in
05:22 69.4 °F 58.8 °F 30.1 in Calm     69 % 0 in
05:25 69.6 °F 59 °F 30.1 in Calm     69 % 0 in
05:30 69.6 °F 59 °F 30.1 in Calm     69 % 0 in
05:32 69.6 °F 59 °F 30.1 in Calm     69 % 0 in
05:42 69.6 °F 59 °F 30.1 in Calm     69 % 0 in
05:47 69.6 °F 59 °F 30.1 in Calm     69 % 0 in
05:52 69.6 °F 59.4 °F 30.1 in Calm     70 % 0 in
05:57 69.4 °F 58.8 °F 30.1 in Calm     69 % 0 in
06:02 69.4 °F 59.2 °F 30.1 in Calm     70 % 0 in
06:07 69.3 °F 59.2 °F 30.1 in Calm     70 % 0 in
06:12 69.3 °F 59.2 °F 30.1 in Calm     70 % 0 in
06:17 69.3 °F 59.2 °F 30.1 in Calm     70 % 0 in
06:22 69.3 °F 59.2 °F 30.1 in North 1.4 mph   70 % 0 in
06:27 69.1 °F 58.8 °F 30.1 in Calm     70 % 0 in
06:32 69.1 °F 58.8 °F 30.1 in North 1.2 mph 1.2 mph 70 % 0 in
06:37 69.1 °F 58.8 °F 30.1 in Calm     70 % 0 in
06:42 69.1 °F 58.8 °F 30.1 in Calm     70 % 0 in
06:47 69.1 °F 58.8 °F 30.1 in Calm     70 % 0 in
06:52 69.1 °F 58.8 °F 30.1 in Calm     70 % 0 in
06:57 69.1 °F 58.8 °F 30.1 in North 1.4 mph 1.4 mph 70 % 0 in
07:02 68.9 °F 59.2 °F 30.1 in ENE 1.6 mph 1.6 mph 71 % 0 in
07:07 68.7 °F 58.8 °F 30.1 in SE 1.2 mph 1.2 mph 71 % 0 in
07:12 68.5 °F 58.8 °F 30.1 in SE 1.2 mph   71 % 0 in
07:17 68.5 °F 58.8 °F 30.1 in Calm     71 % 0 in
07:22 68.2 °F 58.5 °F 30.1 in WSW 1.2 mph 1.2 mph 71 % 0 in
07:27 68.2 °F 58.8 °F 30.1 in Calm     72 % 0 in
07:32 68.2 °F 58.8 °F 30 in Calm     72 % 0 in
07:37 68.4 °F 59 °F 30 in Calm     72 % 0 in
07:42 68.4 °F 59 °F 30 in WSW 1.2 mph 1.2 mph 72 % 0 in
07:47 68.4 °F 59 °F 30 in SW 2.3 mph 2.3 mph 72 % 0 in
07:48 68.4 °F 59 °F 30 in SW 1.2 mph 1.2 mph 72 % 0 in
07:53 68.4 °F 59 °F 30 in South 1.4 mph 1.4 mph 72 % 0 in
07:58 68.7 °F 59.4 °F 30.1 in SW 2.3 mph 2.3 mph 72 % 0 in
08:03 68.9 °F 59.5 °F 30.1 in SW 2.3 mph 2.3 mph 72 % 0 in
08:08 69.1 °F 59.7 °F 30.1 in SW 2.3 mph 2.3 mph 72 % 0 in
08:13 69.3 °F 59.7 °F 30.1 in SW 2.3 mph 2.3 mph 72 % 0 in
08:18 69.6 °F 60.3 °F 30.1 in SW 1.2 mph   72 % 0 in
08:23 70.2 °F 60.6 °F 30.1 in SW 1.4 mph 1.4 mph 72 % 0 in
08:28 70.5 °F 60.6 °F 30 in SW 2.3 mph 2.3 mph 71 % 0 in
08:33 70.7 °F 60.8 °F 30 in WSW 2.3 mph 2.3 mph 71 % 0 in
08:38 71.1 °F 60.8 °F 30 in SW 1.2 mph 1.2 mph 70 % 0 in
08:43 71.8 °F 61.2 °F 30.1 in Calm     69 % 0 in
08:48 73.2 °F 62.4 °F 30.1 in SE 1.2 mph   69 % 0 in
08:53 73.9 °F 62.8 °F 30.1 in ESE 2.3 mph 2.3 mph 68 % 0 in
08:58 75.2 °F 63.1 °F 30.1 in East 2 mph 2 mph 66 % 0 in
09:03 74.7 °F 63 °F 30.1 in ENE 2.3 mph 2.3 mph 67 % 0 in
09:08 75.2 °F 62.6 °F 30.1 in NE 2.3 mph 2.3 mph 65 % 0 in
09:13 75.7 °F 63.1 °F 30.1 in NNE 2.3 mph 2.3 mph 65 % 0 in
09:18 76.3 °F 63.1 °F 30.1 in ENE 2.9 mph 2.9 mph 64 % 0 in
09:23 77 °F 63 °F 30.1 in ENE 2.3 mph 2.3 mph 62 % 0 in
09:28 77.7 °F 63.7 °F 30.1 in NW 1.6 mph   62 % 0 in
09:33 78.4 °F 63.9 °F 30.1 in NW 1.6 mph 1.6 mph 61 % 0 in
09:38 78.4 °F 63.9 °F 30.1 in North 1.2 mph 1.2 mph 61 % 0 in
09:43 78.6 °F 63.7 °F 30.1 in ENE 2.3 mph 2.3 mph 60 % 0 in
09:48 78.3 °F 62.8 °F 30.1 in ENE 2.3 mph 2.3 mph 59 % 0 in
09:53 78.8 °F 63.7 °F 30.1 in ENE 1.2 mph 1.2 mph 60 % 0 in
09:58 79.3 °F 63.9 °F 30.1 in SSW 2.3 mph 2.3 mph 59 % 0 in
10:03 80.1 °F 64.4 °F 30.1 in West 3.5 mph 3.5 mph 59 % 0 in
10:08 79.7 °F 63.7 °F 30.1 in SW 1.2 mph   58 % 0 in
10:13 81 °F 64.2 °F 30.1 in WSW 2.3 mph 2.3 mph 57 % 0 in
10:18 81.3 °F 64 °F 30.1 in SE 2.3 mph 2.3 mph 56 % 0 in
10:23 82.2 °F 64.4 °F 30.1 in WSW 3.1 mph 3.1 mph 55 % 0 in
10:28 82.4 °F 64 °F 30.1 in SW 4.3 mph 4.3 mph 54 % 0 in
10:33 82.4 °F 63 °F 30.1 in SSE 3.5 mph 3.5 mph 52 % 0 in
10:38 82.6 °F 63.1 °F 30.1 in SSW 3.5 mph 3.5 mph 52 % 0 in
10:43 83.1 °F 63.1 °F 30.1 in South 3.5 mph 3.5 mph 51 % 0 in
10:48 83.7 °F 63.7 °F 30.1 in SSW 4.6 mph 4.6 mph 51 % 0 in
10:53 83.8 °F 63.9 °F 30.1 in South 3.5 mph 3.8 mph 51 % 0 in
10:58 84.6 °F 63.3 °F 30.1 in SSE 5.8 mph 5.8 mph 49 % 0 in
11:03 85.3 °F 63.3 °F 30.1 in WSW 5.8 mph 5.8 mph 48 % 0 in
11:08 86.2 °F 64.2 °F 30.1 in SW 2.4 mph 2.4 mph 48 % 0 in
11:09 86.2 °F 64.2 °F 30.1 in SW 2.4 mph 2.4 mph 48 % 0 in
11:14 86.5 °F 64.6 °F 30.1 in West 9.2 mph 9.2 mph 48 % 0 in
11:19 85.5 °F 63.5 °F 30.1 in SW 3.5 mph 3.5 mph 48 % 0 in
11:24 85.5 °F 63.5 °F 30.1 in WSW 6.9 mph 6.9 mph 48 % 0 in
11:29 86 °F 63.3 °F 30 in WSW 5.6 mph 5.6 mph 47 % 0 in
11:34 85.8 °F 62.6 °F 30 in SW 6.9 mph 6.9 mph 46 % 0 in
11:39 86.2 °F 62.2 °F 30 in SW 8.1 mph 8.1 mph 45 % 0 in
11:44 86.5 °F 62.8 °F 30.1 in SSW 4.6 mph 4.6 mph 45 % 0 in
11:49 86.9 °F 63 °F 30.1 in SW 8.1 mph 8.1 mph 45 % 0 in
11:54 87.3 °F 63.3 °F 30.1 in WNW 3.5 mph 3.5 mph 45 % 0 in
11:59 87.4 °F 63.5 °F 30.1 in SSW 3.5 mph 3.8 mph 45 % 0 in
12:04 88.3 °F 63.7 °F 30.1 in SSW 2.3 mph 2.4 mph 44 % 0 in
12:09 88.3 °F 63.7 °F 30.1 in SW 4.6 mph 4.6 mph 44 % 0 in
12:14 89.2 °F 64.6 °F 30.1 in SW 3.5 mph 3.5 mph 44 % 0 in
12:19 89.4 °F 64 °F 30.1 in South 3.5 mph 3.5 mph 43 % 0 in
12:24 90.1 °F 64.6 °F 30.1 in SSE 3.8 mph 3.8 mph 43 % 0 in
12:29 90.9 °F 65.3 °F 30 in West 3.3 mph 3.3 mph 43 % 0 in
12:34 90.3 °F 64 °F 30 in South 5.8 mph 5.8 mph 42 % 0 in
12:39 90.7 °F 64.4 °F 30 in South 3.5 mph 3.5 mph 42 % 0 in
12:44 90.1 °F 63.3 °F 30 in South 3.5 mph 3.5 mph 41 % 0 in
12:49 92.1 °F 64.2 °F 30 in WSW 2.3 mph 2.3 mph 40 % 0 in
12:54 92.3 °F 64.6 °F 30 in SSE 4.6 mph 4.6 mph 40 % 0 in
12:59 92.1 °F 63.7 °F 30 in South 3.5 mph 3.5 mph 39 % 0 in
13:04 91.8 °F 62.4 °F 30 in South 4.6 mph 4.6 mph 38 % 0 in
13:09 91.8 °F 63.3 °F 30 in SW 4.9 mph 5.6 mph 39 % 0 in
13:14 91.4 °F 63 °F 30 in WSW 5.8 mph 5.8 mph 39 % 0 in
13:19 92.5 °F 62.4 °F 30 in SE 3.5 mph 3.5 mph 37 % 0 in
13:24 92.7 °F 63.3 °F 30 in ESE 4.6 mph 4.6 mph 38 % 0 in
13:29 93.2 °F 63.1 °F 30 in SW 4.6 mph 4.6 mph 37 % 0 in
13:34 93.4 °F 63.1 °F 30 in SSW 5.8 mph 5.8 mph 37 % 0 in
13:39 92.8 °F 62.8 °F 30 in SW 8.1 mph 8.1 mph 37 % 0 in
13:44 92.3 °F 62.2 °F 30 in ENE 5.8 mph 5.8 mph 37 % 0 in
13:49 93.6 °F 63.3 °F 30 in SSW 6 mph 6 mph 37 % 0 in
13:54 94.3 °F 63.1 °F 30 in SSW 3.5 mph 3.5 mph 36 % 0 in
13:59 93.9 °F 63.7 °F 30 in SW 4.6 mph 5.4 mph 37 % 0 in
14:04 94.1 °F 63.1 °F 30 in SW 5.6 mph 5.6 mph 36 % 0 in
14:09 93.9 °F 63 °F 30 in WSW 5.8 mph 5.8 mph 36 % 0 in
14:14 94.5 °F 63.3 °F 30 in South 8.1 mph 8.1 mph 36 % 0 in
14:19 93.6 °F 62.6 °F 30 in SW 8.1 mph 8.1 mph 36 % 0 in
14:24 93.7 °F 62.8 °F 30 in SW 5.8 mph 5.8 mph 36 % 0 in
14:29 93.6 °F 61.9 °F 30 in WSW 6.9 mph 6.9 mph 35 % 0 in
14:34 94.1 °F 62.2 °F 30 in SSE 10.5 mph 10.5 mph 35 % 0 in
14:39 93.6 °F 61 °F 30 in SW 6.9 mph 6.9 mph 34 % 0 in
14:44 94.1 °F 62.2 °F 30 in SW 5.8 mph 5.8 mph 35 % 0 in
14:49 93.7 °F 61.2 °F 30 in WSW 11.5 mph 11.5 mph 34 % 0 in
14:54 93.4 °F 60.8 °F 30 in SSW 5.8 mph 5.8 mph 34 % 0 in
14:59 93.4 °F 60.8 °F 30 in WSW 8.1 mph 8.1 mph 34 % 0 in
15:01 93.4 °F 60.8 °F 30 in WSW 8.1 mph 8.1 mph 34 % 0 in
15:06 92.8 °F 61.2 °F 30 in South 5.8 mph 5.8 mph 35 % 0 in
15:11 92.8 °F 61.2 °F 30 in SW 5.8 mph 5.8 mph 35 % 0 in
15:16 92.3 °F 60.6 °F 30 in SW 10.4 mph 10.4 mph 35 % 0 in
15:21 92.3 °F 60.6 °F 30 in SW 12.7 mph 12.7 mph 35 % 0 in
15:26 90.9 °F 60.3 °F 30 in SSW 9.2 mph 9.2 mph 36 % 0 in
15:31 91.9 °F 61.2 °F 30 in SW 13 mph 13 mph 36 % 0 in
15:36 91.2 °F 60.4 °F 30 in WNW 9.2 mph 9.2 mph 36 % 0 in
15:41 91.4 °F 60.6 °F 30 in SSW 6.9 mph 6.9 mph 36 % 0 in
15:46 91 °F 61.2 °F 30 in WSW 8.1 mph 8.1 mph 37 % 0 in
15:51 90.7 °F 60.8 °F 30 in SW 11.5 mph 11.5 mph 37 % 0 in
15:56 90 °F 60.3 °F 30 in South 9.2 mph 9.2 mph 37 % 0 in
16:01 89.2 °F 60.3 °F 30 in South 11.5 mph 11.5 mph 38 % 0 in
16:06 89.1 °F 60.1 °F 30 in SW 8.1 mph 8.1 mph 38 % 0 in
16:11 89.6 °F 60.6 °F 30 in WSW 11.5 mph 11.5 mph 38 % 0 in
16:16 89.4 °F 60.4 °F 30 in SSE 6.9 mph 6.9 mph 38 % 0 in
16:21 89.8 °F 60.8 °F 30 in South 6.9 mph 6.9 mph 38 % 0 in
16:26 88.9 °F 60.6 °F 30 in SSW 10.4 mph 10.4 mph 39 % 0 in
16:31 89.8 °F 61.5 °F 30 in SSW 8.1 mph 8.1 mph 39 % 0 in
16:36 89.6 °F 61.3 °F 30 in SSE 10.2 mph 10.2 mph 39 % 0 in
16:41 89.8 °F 61.5 °F 30 in SSE 3.5 mph 3.5 mph 39 % 0 in
16:46 90.1 °F 61.9 °F 30 in SSW 9.2 mph 9.2 mph 39 % 0 in
16:51 89.4 °F 61.2 °F 30 in WSW 5.8 mph 5.8 mph 39 % 0 in
16:56 89.6 °F 62.1 °F 30 in WSW 8.1 mph 8.1 mph 40 % 0 in
17:01 89.1 °F 61.5 °F 30 in SW 5.8 mph 5.8 mph 40 % 0 in
17:06 88.9 °F 61.3 °F 30 in SW 6.9 mph 6.9 mph 40 % 0 in
17:11 88.9 °F 62.1 °F 30 in SW 7.6 mph 7.6 mph 41 % 0 in
17:16 89.2 °F 62.4 °F 30 in South 10.4 mph 10.4 mph 41 % 0 in
17:21 89.2 °F 62.4 °F 30 in WSW 8.1 mph 8.1 mph 41 % 0 in
17:26 88.7 °F 62.1 °F 30 in SW 9.2 mph 9.2 mph 41 % 0 in
17:31 88.9 °F 62.1 °F 30 in WSW 7.8 mph 7.8 mph 41 % 0 in
17:36 88.7 °F 62.1 °F 30 in WSW 6.9 mph 6.9 mph 41 % 0 in
17:41 88.9 °F 62.1 °F 30 in SSW 5.8 mph 5.8 mph 41 % 0 in
17:46 88 °F 62.1 °F 30 in South 7.6 mph 7.6 mph 42 % 0 in
17:51 88.2 °F 62.2 °F 30 in WSW 6.9 mph 6.9 mph 42 % 0 in
17:56 88.2 °F 62.2 °F 30 in WSW 5.8 mph 5.8 mph 42 % 0 in
18:01 88.3 °F 62.2 °F 30 in SW 6.9 mph 6.9 mph 42 % 0 in
18:06 88.7 °F 62.8 °F 30 in SSW 4.3 mph 4.3 mph 42 % 0 in
18:11 88.5 °F 62.4 °F 30 in SW 6.9 mph 6.9 mph 42 % 0 in
18:16 87.6 °F 62.4 °F 30 in SW 6.9 mph 6.9 mph 43 % 0 in
18:21 88.2 °F 62.2 °F 30 in SW 9.2 mph 9.2 mph 42 % 0 in
18:26 86.9 °F 61.7 °F 30 in SW 10.4 mph 10.4 mph 43 % 0 in
18:31 86.7 °F 62.2 °F 30 in SW 5.8 mph 5.8 mph 44 % 0 in
18:36 86.7 °F 62.2 °F 30 in SW 6 mph 6 mph 44 % 0 in
18:41 86.4 °F 61.9 °F 30 in West 5.8 mph 5.8 mph 44 % 0 in
18:46 86.5 °F 62.1 °F 30 in SW 8.1 mph 8.1 mph 44 % 0 in
18:51 85.8 °F 62.1 °F 30 in SSW 5.9 mph 5.9 mph 45 % 0 in
18:56 85.6 °F 61.9 °F 30 in SW 6.2 mph 6.2 mph 45 % 0 in
19:01 85.5 °F 61.7 °F 30 in WSW 5.8 mph 5.8 mph 45 % 0 in
19:06 85.3 °F 62.2 °F 30 in SSW 6.9 mph 6.9 mph 46 % 0 in
19:11 84.9 °F 61.9 °F 30 in SW 9.2 mph 9.2 mph 46 % 0 in
19:16 84.4 °F 61.9 °F 30 in SSW 6.9 mph 6.9 mph 47 % 0 in
19:21 84.2 °F 61.9 °F 30 in SW 8.1 mph 8.1 mph 47 % 0 in
19:26 83.8 °F 62.1 °F 30 in SSW 4.9 mph 4.9 mph 48 % 0 in
19:31 83.8 °F 62.1 °F 30 in WSW 5.9 mph 5.9 mph 48 % 0 in
19:36 83.3 °F 62.1 °F 30 in SSW 6.9 mph 6.9 mph 49 % 0 in
19:42 82.9 °F 61.9 °F 30 in SSW 4.7 mph 4.7 mph 49 % 0 in
19:47 82.8 °F 61.5 °F 30 in WSW 4.6 mph 4.6 mph 49 % 0 in
19:52 82.6 °F 61.5 °F 30 in WSW 5.8 mph 5.8 mph 49 % 0 in
19:53 82.6 °F 61.5 °F 30 in WSW 5.6 mph 5.6 mph 49 % 0 in
19:58 82.2 °F 61.7 °F 30 in SW 5.8 mph 5.8 mph 50 % 0 in
20:03 81.9 °F 61.3 °F 30 in SSW 6.9 mph 6.9 mph 50 % 0 in
20:08 81.5 °F 61.5 °F 30 in SW 5.8 mph 5.8 mph 51 % 0 in
20:13 81.3 °F 61.5 °F 30 in WSW 6 mph 6 mph 51 % 0 in
20:18 81 °F 61.2 °F 30 in SW 5.9 mph 5.9 mph 51 % 0 in
20:23 80.6 °F 61.3 °F 30 in South 5.8 mph 5.8 mph 52 % 0 in
20:28 80.4 °F 61.7 °F 30 in WSW 3.5 mph 3.5 mph 53 % 0 in
20:33 80.2 °F 61.5 °F 30 in SW 4.6 mph 4.6 mph 53 % 0 in
20:38 80.1 °F 61.3 °F 30 in SW 4.6 mph 4.6 mph 53 % 0 in
20:39 80.1 °F 61.3 °F 30 in SW 4.6 mph 4.6 mph 53 % 0 in
20:44 79.9 °F 61.2 °F 30 in SW 3.1 mph 3.1 mph 53 % 0 in
20:49 79.5 °F 61.3 °F 30 in SW 3.5 mph 3.5 mph 54 % 0 in
20:54 79.3 °F 61.2 °F 30 in SW 2.3 mph 2.3 mph 54 % 0 in
20:59 79 °F 61 °F 30 in SSW 4.6 mph 4.6 mph 54 % 0 in
21:04 78.8 °F 60.6 °F 30 in WSW 3.5 mph 3.5 mph 54 % 0 in
21:09 78.6 °F 60.6 °F 30 in SW 3.1 mph 3.1 mph 54 % 0 in
21:14 78.6 °F 61.2 °F 30 in SW 2.3 mph 2.3 mph 55 % 0 in
21:19 78.3 °F 60.8 °F 30 in SW 2.3 mph 2.3 mph 55 % 0 in
21:24 78.1 °F 61.2 °F 30 in SSW 2.3 mph 2.3 mph 56 % 0 in
21:29 78.1 °F 61.2 °F 30 in SW 2.3 mph   56 % 0 in
21:34 77.9 °F 61 °F 30 in SW 2.3 mph 2.3 mph 56 % 0 in
21:39 77.5 °F 60.6 °F 30 in SW 3.6 mph 3.6 mph 56 % 0 in
21:44 77.5 °F 61.2 °F 30 in SW 2.3 mph 2.3 mph 57 % 0 in
21:49 77.4 °F 61 °F 30 in WSW 2.3 mph 2.3 mph 57 % 0 in
21:54 77.2 °F 61.3 °F 30 in WSW 2.3 mph 2.3 mph 58 % 0 in
21:59 77 °F 61.2 °F 30 in WSW 2.3 mph 2.3 mph 58 % 0 in
22:04 77 °F 61.5 °F 30 in WSW 2.3 mph 2.3 mph 59 % 0 in
22:09 76.8 °F 61.9 °F 30 in WSW 2.3 mph 2.3 mph 60 % 0 in
22:14 76.8 °F 61.9 °F 30 in WSW 2.4 mph 2.4 mph 60 % 0 in
22:19 76.6 °F 62.2 °F 30 in WSW 2.3 mph 2.3 mph 61 % 0 in
22:24 76.5 °F 62.1 °F 30 in WSW 3.5 mph 3.5 mph 61 % 0 in
22:29 76.5 °F 62.4 °F 30.1 in WSW 2.3 mph 2.3 mph 62 % 0 in
22:34 76.3 °F 62.2 °F 30.1 in SW 2.3 mph 2.3 mph 62 % 0 in
22:39 76.1 °F 62.6 °F 30.1 in WSW 1.4 mph 1.4 mph 63 % 0 in
22:44 75.9 °F 62.4 °F 30 in West 2.4 mph 2.4 mph 63 % 0 in
22:49 75.9 °F 62.4 °F 30 in West 2.3 mph 2.3 mph 63 % 0 in
22:54 75.7 °F 62.8 °F 30 in West 2.3 mph 2.3 mph 64 % 0 in
22:59 75.7 °F 62.8 °F 30.1 in West 2.3 mph 2.3 mph 64 % 0 in
23:04 75.6 °F 62.4 °F 30.1 in West 2.3 mph 2.3 mph 64 % 0 in
23:09 75.4 °F 62.8 °F 30.1 in SW 2.3 mph 2.3 mph 65 % 0 in
23:14 75.4 °F 62.8 °F 30.1 in WNW 2.3 mph 2.3 mph 65 % 0 in
23:19 75.2 °F 63.1 °F 30.1 in WSW 2.3 mph 2.3 mph 66 % 0 in
23:24 75.2 °F 63.1 °F 30.1 in NW 1.2 mph   66 % 0 in
23:29 75.2 °F 63.1 °F 30 in WSW 2.6 mph 2.6 mph 66 % 0 in
23:34 75 °F 63.7 °F 30 in Calm     68 % 0 in
23:39 75 °F 63.7 °F 30 in Calm     68 % 0 in
23:44 74.8 °F 63.7 °F 30.1 in West 1.2 mph 1.4 mph 68 % 0 in
23:49 74.8 °F 63.7 °F 30.1 in WSW 1.2 mph   68 % 0 in
23:54 74.7 °F 63.9 °F 30.1 in Calm     69 % 0 in
23:59 74.7 °F 63.9 °F 30 in WSW 2.3 mph 2.3 mph 69 % 0 in
Meteo Sesrovires
Elogis d' Weather Underground - 4 mb

Guio original per  Jim McMurry - jmcmurry@mwt.net Adaptat per a la plantilla per  Wim van der Kuil - Leuven-Template.eu

Trobareu la nostra informacio del temps tambe a:

Weather Underground

AWEKAS